Time,TemperatureF,DewpointF,PressureIn,WindDirection,WindDirectionDegrees,WindSpeedMPH,WindSpeedGustMPH,Humidity,HourlyPrecipIn,Conditions,Clouds,dailyrainin,SoftwareType,DateUTC
2013-03-07 00:01:00,26.0,16.0,-100.00,North,350,2.0,3.0,65,-99.99,,,-99.99,,2013-03-07 06:01:00,
2013-03-07 00:32:00,23.0,14.0,-100.00,WNW,295,2.0,3.0,67,-99.99,,,-99.99,,2013-03-07 06:32:00,
2013-03-07 00:42:00,23.0,14.0,-100.00,WNW,295,2.0,3.0,67,-99.99,,,-99.99,,2013-03-07 06:42:00,
2013-03-07 00:52:00,23.0,14.0,-100.00,WNW,295,2.0,3.0,67,-99.99,,,-99.99,,2013-03-07 06:52:00,
2013-03-07 01:01:00,23.0,14.0,-100.00,WNW,295,2.0,3.0,67,-99.99,,,-99.99,,2013-03-07 07:01:00,
2013-03-07 01:11:00,23.0,14.0,-100.00,WNW,295,2.0,3.0,67,-99.99,,,-99.99,,2013-03-07 07:11:00,
2013-03-07 01:12:00,19.0,11.0,-100.00,NNW,335,2.0,4.0,71,-99.99,,,-99.99,,2013-03-07 07:12:00,
2013-03-07 01:32:00,19.0,11.0,-100.00,NNW,335,2.0,4.0,71,-99.99,,,-99.99,,2013-03-07 07:32:00,
2013-03-07 01:43:00,19.0,11.0,-100.00,NNW,335,2.0,4.0,71,-99.99,,,-99.99,,2013-03-07 07:43:00,
2013-03-07 01:53:00,19.0,11.0,-100.00,NNW,335,2.0,4.0,71,-99.99,,,-99.99,,2013-03-07 07:53:00,
2013-03-07 02:02:00,19.0,11.0,-100.00,NNW,335,2.0,4.0,71,-99.99,,,-99.99,,2013-03-07 08:02:00,
2013-03-07 02:11:00,16.0,10.0,-100.00,NNW,345,1.0,2.0,76,-99.99,,,-99.99,,2013-03-07 08:11:00,
2013-03-07 02:34:00,16.0,10.0,-100.00,NNW,345,1.0,2.0,76,-99.99,,,-99.99,,2013-03-07 08:34:00,
2013-03-07 02:45:00,16.0,10.0,-100.00,NNW,345,1.0,2.0,76,-99.99,,,-99.99,,2013-03-07 08:45:00,
2013-03-07 02:54:00,16.0,10.0,-100.00,NNW,345,1.0,2.0,76,-99.99,,,-99.99,,2013-03-07 08:54:00,
2013-03-07 03:03:00,16.0,10.0,-100.00,NNW,345,1.0,2.0,76,-99.99,,,-99.99,,2013-03-07 09:03:00,
2013-03-07 03:11:00,12.0,6.0,-100.00,West,280,0.0,2.0,77,-99.99,,,-99.99,,2013-03-07 09:11:00,
2013-03-07 03:33:00,12.0,6.0,-100.00,West,280,0.0,2.0,77,-99.99,,,-99.99,,2013-03-07 09:33:00,
2013-03-07 03:43:00,12.0,6.0,-100.00,West,280,0.0,2.0,77,-99.99,,,-99.99,,2013-03-07 09:43:00,
2013-03-07 03:53:00,12.0,6.0,-100.00,West,280,0.0,2.0,77,-99.99,,,-99.99,,2013-03-07 09:53:00,
2013-03-07 04:03:00,12.0,6.0,-100.00,West,280,0.0,2.0,77,-99.99,,,-99.99,,2013-03-07 10:03:00,
2013-03-07 04:11:00,11.0,5.0,-100.00,NW,320,0.0,0.0,79,-99.99,,,-99.99,,2013-03-07 10:11:00,
2013-03-07 04:33:00,11.0,5.0,-100.00,NW,320,0.0,0.0,79,-99.99,,,-99.99,,2013-03-07 10:33:00,
2013-03-07 04:43:00,11.0,5.0,-100.00,NW,320,0.0,0.0,79,-99.99,,,-99.99,,2013-03-07 10:43:00,
2013-03-07 04:53:00,11.0,5.0,-100.00,NW,320,0.0,0.0,79,-99.99,,,-99.99,,2013-03-07 10:53:00,
2013-03-07 05:03:00,11.0,5.0,-100.00,NW,320,0.0,0.0,79,-99.99,,,-99.99,,2013-03-07 11:03:00,
2013-03-07 05:11:00,10.0,5.0,-100.00,NW,325,0.0,4.0,81,-99.99,,,-99.99,,2013-03-07 11:11:00,
2013-03-07 05:34:00,10.0,5.0,-100.00,NW,325,0.0,4.0,81,-99.99,,,-99.99,,2013-03-07 11:34:00,
2013-03-07 05:44:00,10.0,5.0,-100.00,NW,325,0.0,4.0,81,-99.99,,,-99.99,,2013-03-07 11:44:00,
2013-03-07 05:54:00,10.0,5.0,-100.00,NW,325,0.0,4.0,81,-99.99,,,-99.99,,2013-03-07 11:54:00,
2013-03-07 06:03:00,10.0,5.0,-100.00,NW,325,0.0,4.0,81,-99.99,,,-99.99,,2013-03-07 12:03:00,
2013-03-07 06:11:00,10.0,5.0,-100.00,WNW,295,1.0,4.0,82,-99.99,,,-99.99,,2013-03-07 12:11:00,
2013-03-07 06:34:00,10.0,5.0,-100.00,WNW,295,1.0,4.0,82,-99.99,,,-99.99,,2013-03-07 12:34:00,
2013-03-07 06:43:00,10.0,5.0,-100.00,WNW,295,1.0,4.0,82,-99.99,,,-99.99,,2013-03-07 12:43:00,
2013-03-07 06:53:00,10.0,5.0,-100.00,WNW,295,1.0,4.0,82,-99.99,,,-99.99,,2013-03-07 12:53:00,
2013-03-07 07:02:00,10.0,5.0,-100.00,WNW,295,1.0,4.0,82,-99.99,,,-99.99,,2013-03-07 13:02:00,
2013-03-07 07:11:00,13.0,8.0,-100.00,NW,305,1.0,4.0,82,-99.99,,,-99.99,,2013-03-07 13:11:00,
2013-03-07 07:33:00,13.0,8.0,-100.00,NW,305,1.0,4.0,82,-99.99,,,-99.99,,2013-03-07 13:33:00,
2013-03-07 07:42:00,13.0,8.0,-100.00,NW,305,1.0,4.0,82,-99.99,,,-99.99,,2013-03-07 13:42:00,
2013-03-07 07:53:00,13.0,8.0,-100.00,NW,305,1.0,4.0,82,-99.99,,,-99.99,,2013-03-07 13:53:00,
2013-03-07 08:02:00,13.0,8.0,-100.00,NW,305,1.0,4.0,82,-99.99,,,-99.99,,2013-03-07 14:02:00,
2013-03-07 08:11:00,22.0,14.0,-100.00,NNW,335,2.0,3.0,74,-99.99,,,-99.99,,2013-03-07 14:11:00,
2013-03-07 08:33:00,22.0,14.0,-100.00,NNW,335,2.0,3.0,74,-99.99,,,-99.99,,2013-03-07 14:33:00,
2013-03-07 08:43:00,22.0,14.0,-100.00,NNW,335,2.0,3.0,74,-99.99,,,-99.99,,2013-03-07 14:43:00,
2013-03-07 08:54:00,22.0,14.0,-100.00,NNW,335,2.0,3.0,74,-99.99,,,-99.99,,2013-03-07 14:54:00,
2013-03-07 09:03:00,22.0,14.0,-100.00,NNW,335,2.0,3.0,74,-99.99,,,-99.99,,2013-03-07 15:03:00,
2013-03-07 09:11:00,29.0,15.0,-100.00,NNW,340,1.0,2.0,57,-99.99,,,-99.99,,2013-03-07 15:11:00,
2013-03-07 09:33:00,29.0,15.0,-100.00,NNW,340,1.0,2.0,57,-99.99,,,-99.99,,2013-03-07 15:33:00,
2013-03-07 09:43:00,29.0,15.0,-100.00,NNW,340,1.0,2.0,57,-99.99,,,-99.99,,2013-03-07 15:43:00,
2013-03-07 09:53:00,29.0,15.0,-100.00,NNW,340,1.0,2.0,57,-99.99,,,-99.99,,2013-03-07 15:53:00,
2013-03-07 10:02:00,29.0,15.0,-100.00,NNW,340,1.0,2.0,57,-99.99,,,-99.99,,2013-03-07 16:02:00,
2013-03-07 10:11:00,31.0,13.0,-100.00,South,185,1.0,4.0,46,-99.99,,,-99.99,,2013-03-07 16:11:00,
2013-03-07 10:33:00,31.0,13.0,-100.00,South,185,1.0,4.0,46,-99.99,,,-99.99,,2013-03-07 16:33:00,
2013-03-07 10:43:00,31.0,13.0,-100.00,South,185,1.0,4.0,46,-99.99,,,-99.99,,2013-03-07 16:43:00,
2013-03-07 10:53:00,31.0,13.0,-100.00,South,185,1.0,4.0,46,-99.99,,,-99.99,,2013-03-07 16:53:00,
2013-03-07 11:02:00,31.0,13.0,-100.00,South,185,1.0,4.0,46,-99.99,,,-99.99,,2013-03-07 17:02:00,
2013-03-07 11:11:00,35.0,14.0,-100.00,WSW,240,1.0,6.0,42,-99.99,,,-99.99,,2013-03-07 17:11:00,
2013-03-07 11:33:00,35.0,14.0,-100.00,WSW,240,1.0,6.0,42,-99.99,,,-99.99,,2013-03-07 17:33:00,
2013-03-07 11:44:00,35.0,14.0,-100.00,WSW,240,1.0,6.0,42,-99.99,,,-99.99,,2013-03-07 17:44:00,
2013-03-07 11:54:00,35.0,14.0,-100.00,WSW,240,1.0,6.0,42,-99.99,,,-99.99,,2013-03-07 17:54:00,
2013-03-07 12:03:00,35.0,14.0,-100.00,WSW,240,1.0,6.0,42,-99.99,,,-99.99,,2013-03-07 18:03:00,
2013-03-07 12:11:00,34.0,14.0,-100.00,SW,235,2.0,5.0,42,-99.99,,,-99.99,,2013-03-07 18:11:00,
2013-03-07 12:32:00,34.0,14.0,-100.00,SW,235,2.0,5.0,42,-99.99,,,-99.99,,2013-03-07 18:32:00,
2013-03-07 12:42:00,34.0,14.0,-100.00,SW,235,2.0,5.0,42,-99.99,,,-99.99,,2013-03-07 18:42:00,
2013-03-07 12:53:00,34.0,14.0,-100.00,SW,235,2.0,5.0,42,-99.99,,,-99.99,,2013-03-07 18:53:00,
2013-03-07 13:03:00,34.0,14.0,-100.00,SW,235,2.0,5.0,42,-99.99,,,-99.99,,2013-03-07 19:03:00,
2013-03-07 14:12:00,36.0,14.0,-100.00,SSE,150,2.0,6.0,40,-99.99,,,-99.99,,2013-03-07 20:12:00,
2013-03-07 14:34:00,36.0,14.0,-100.00,SSE,150,2.0,6.0,40,-99.99,,,-99.99,,2013-03-07 20:34:00,
2013-03-07 14:43:00,36.0,14.0,-100.00,SSE,150,2.0,6.0,40,-99.99,,,-99.99,,2013-03-07 20:43:00,
2013-03-07 14:54:00,36.0,14.0,-100.00,SSE,150,2.0,6.0,40,-99.99,,,-99.99,,2013-03-07 20:54:00,
2013-03-07 15:02:00,36.0,14.0,-100.00,SSE,150,2.0,6.0,40,-99.99,,,-99.99,,2013-03-07 21:02:00,
2013-03-07 15:11:00,36.0,14.0,-100.00,ESE,105,1.0,4.0,40,-99.99,,,-99.99,,2013-03-07 21:11:00,
2013-03-07 15:33:00,36.0,14.0,-100.00,ESE,105,1.0,4.0,40,-99.99,,,-99.99,,2013-03-07 21:33:00,
2013-03-07 15:43:00,36.0,14.0,-100.00,ESE,105,1.0,4.0,40,-99.99,,,-99.99,,2013-03-07 21:43:00,
2013-03-07 15:53:00,36.0,14.0,-100.00,ESE,105,1.0,4.0,40,-99.99,,,-99.99,,2013-03-07 21:53:00,
2013-03-07 16:02:00,36.0,14.0,-100.00,ESE,105,1.0,4.0,40,-99.99,,,-99.99,,2013-03-07 22:02:00,
2013-03-07 16:10:00,36.0,14.0,-100.00,WSW,240,1.0,6.0,40,-99.99,,,-99.99,,2013-03-07 22:10:00,
2013-03-07 16:33:00,36.0,14.0,-100.00,WSW,240,1.0,6.0,40,-99.99,,,-99.99,,2013-03-07 22:33:00,
2013-03-07 16:43:00,36.0,14.0,-100.00,WSW,240,1.0,6.0,40,-99.99,,,-99.99,,2013-03-07 22:43:00,
2013-03-07 16:54:00,36.0,14.0,-100.00,WSW,240,1.0,6.0,40,-99.99,,,-99.99,,2013-03-07 22:54:00,
2013-03-07 17:02:00,36.0,14.0,-100.00,WSW,240,1.0,6.0,40,-99.99,,,-99.99,,2013-03-07 23:02:00,
2013-03-07 17:10:00,32.0,14.0,-100.00,SSE,155,2.0,7.0,46,-99.99,,,-99.99,,2013-03-07 23:10:00,
2013-03-07 17:34:00,32.0,14.0,-100.00,SSE,155,2.0,7.0,46,-99.99,,,-99.99,,2013-03-07 23:34:00,
2013-03-07 17:44:00,32.0,14.0,-100.00,SSE,155,2.0,7.0,46,-99.99,,,-99.99,,2013-03-07 23:44:00,
2013-03-07 17:54:00,32.0,14.0,-100.00,SSE,155,2.0,7.0,46,-99.99,,,-99.99,,2013-03-07 23:54:00,
2013-03-07 18:04:00,32.0,14.0,-100.00,SSE,155,2.0,7.0,46,-99.99,,,-99.99,,2013-03-08 00:04:00,
2013-03-07 18:34:00,27.0,14.0,-100.00,SE,145,1.0,3.0,57,-99.99,,,-99.99,,2013-03-08 00:34:00,
2013-03-07 18:44:00,27.0,14.0,-100.00,SE,145,1.0,3.0,57,-99.99,,,-99.99,,2013-03-08 00:44:00,
2013-03-07 18:54:00,27.0,14.0,-100.00,SE,145,1.0,3.0,57,-99.99,,,-99.99,,2013-03-08 00:54:00,
2013-03-07 19:02:00,27.0,14.0,-100.00,SE,145,1.0,3.0,57,-99.99,,,-99.99,,2013-03-08 01:02:00,
2013-03-07 19:11:00,27.0,14.0,-100.00,SE,145,1.0,3.0,57,-99.99,,,-99.99,,2013-03-08 01:11:00,
2013-03-07 19:33:00,23.0,13.0,-100.00,West,270,0.0,1.0,65,-99.99,,,-99.99,,2013-03-08 01:33:00,
2013-03-07 19:42:00,23.0,13.0,-100.00,West,270,0.0,1.0,65,-99.99,,,-99.99,,2013-03-08 01:42:00,
2013-03-07 19:52:00,23.0,13.0,-100.00,West,270,0.0,1.0,65,-99.99,,,-99.99,,2013-03-08 01:52:00,
2013-03-07 20:01:00,23.0,13.0,-100.00,West,270,0.0,1.0,65,-99.99,,,-99.99,,2013-03-08 02:01:00,
2013-03-07 20:11:00,20.0,11.0,-100.00,NW,305,0.0,1.0,68,-99.99,,,-99.99,,2013-03-08 02:11:00,
2013-03-07 20:32:00,20.0,11.0,-100.00,NW,305,0.0,1.0,68,-99.99,,,-99.99,,2013-03-08 02:32:00,
2013-03-07 20:42:00,20.0,11.0,-100.00,NW,305,0.0,1.0,68,-99.99,,,-99.99,,2013-03-08 02:42:00,
2013-03-07 20:53:00,20.0,11.0,-100.00,NW,305,0.0,1.0,68,-99.99,,,-99.99,,2013-03-08 02:53:00,
2013-03-07 21:02:00,20.0,11.0,-100.00,NW,305,0.0,1.0,68,-99.99,,,-99.99,,2013-03-08 03:02:00,
2013-03-07 21:11:00,18.0,11.0,-100.00,NW,315,0.0,1.0,73,-99.99,,,-99.99,,2013-03-08 03:11:00,
2013-03-07 21:33:00,18.0,11.0,-100.00,NW,315,0.0,1.0,73,-99.99,,,-99.99,,2013-03-08 03:33:00,
2013-03-07 21:43:00,18.0,11.0,-100.00,NW,315,0.0,1.0,73,-99.99,,,-99.99,,2013-03-08 03:43:00,
2013-03-07 21:53:00,18.0,11.0,-100.00,NW,315,0.0,1.0,73,-99.99,,,-99.99,,2013-03-08 03:53:00,
2013-03-07 22:01:00,18.0,11.0,-100.00,NW,315,0.0,1.0,73,-99.99,,,-99.99,,2013-03-08 04:01:00,
2013-03-07 22:10:00,16.0,10.0,-100.00,ENE,65,0.0,2.0,77,-99.99,,,-99.99,,2013-03-08 04:10:00,
2013-03-07 22:32:00,16.0,10.0,-100.00,ENE,65,0.0,2.0,77,-99.99,,,-99.99,,2013-03-08 04:32:00,
2013-03-07 22:42:00,16.0,10.0,-100.00,ENE,65,0.0,2.0,77,-99.99,,,-99.99,,2013-03-08 04:42:00,
2013-03-07 22:52:00,16.0,10.0,-100.00,ENE,65,0.0,2.0,77,-99.99,,,-99.99,,2013-03-08 04:52:00,
2013-03-07 23:02:00,16.0,10.0,-100.00,ENE,65,0.0,2.0,77,-99.99,,,-99.99,,2013-03-08 05:02:00,
2013-03-07 23:33:00,16.0,11.0,-100.00,NNW,340,0.0,1.0,80,-99.99,,,-99.99,,2013-03-08 05:33:00,
2013-03-07 23:42:00,16.0,11.0,-100.00,NNW,340,0.0,1.0,80,-99.99,,,-99.99,,2013-03-08 05:42:00,
2013-03-07 23:52:00,16.0,11.0,-100.00,NNW,340,0.0,1.0,80,-99.99,,,-99.99,,2013-03-08 05:52:00,